createdAt,value
2024-02-05T00:03:55.464Z,1.10
2024-02-05T00:08:59.170Z,1.10
2024-02-05T00:14:03.640Z,1.80
2024-02-05T00:19:06.779Z,1.70
2024-02-05T00:24:09.911Z,1.90
2024-02-05T00:29:13.230Z,1.30
2024-02-05T00:34:16.970Z,1.20
2024-02-05T00:39:20.068Z,1.50
2024-02-05T00:44:23.112Z,1.40
2024-02-05T00:49:26.306Z,1.10
2024-02-05T00:54:30.726Z,1.50
2024-02-05T00:59:34.041Z,1.50
2024-02-05T01:04:39.424Z,1.50
2024-02-05T01:09:42.848Z,1.40
2024-02-05T01:14:46.040Z,1.10
2024-02-05T01:19:50.672Z,1.10
2024-02-05T01:24:53.901Z,1.40
2024-02-05T01:29:57.092Z,1.60
2024-02-05T01:35:01.990Z,0.80
2024-02-05T01:40:11.672Z,1.30
2024-02-05T01:45:15.016Z,1.70
2024-02-05T01:50:19.646Z,1.80
2024-02-05T01:55:26.291Z,2.20
2024-02-05T02:00:29.820Z,2.20
2024-02-05T02:05:33.343Z,1.60
2024-02-05T02:10:36.493Z,1.80
2024-02-05T02:15:39.829Z,1.40
2024-02-05T02:20:47.644Z,1.50
2024-02-05T02:25:51.697Z,1.20
2024-02-05T02:30:55.924Z,1.20
2024-02-05T02:36:07.850Z,1.70
2024-02-05T02:41:24.342Z,1.10
2024-02-05T02:46:31.245Z,1.00
2024-02-05T02:51:34.551Z,1.00
2024-02-05T02:56:37.665Z,1.10
2024-02-05T03:01:41.107Z,1.60
2024-02-05T03:06:44.311Z,1.50
2024-02-05T03:11:47.407Z,2.20
2024-02-05T03:16:50.815Z,1.70
2024-02-05T03:21:53.982Z,1.60
2024-02-05T03:26:57.029Z,1.00
2024-02-05T03:32:00.419Z,1.20
2024-02-05T03:37:04.126Z,1.30
2024-02-05T03:42:08.107Z,1.20
2024-02-05T03:47:11.107Z,0.90
2024-02-05T03:52:14.428Z,1.20
2024-02-05T03:57:17.737Z,1.50
2024-02-05T04:02:21.664Z,1.30
2024-02-05T04:07:25.577Z,1.20
2024-02-05T04:12:28.806Z,1.70
2024-02-05T04:17:31.923Z,1.50
2024-02-05T04:22:35.031Z,1.50
2024-02-05T04:27:38.400Z,1.20
2024-02-05T04:32:41.597Z,1.40
2024-02-05T04:37:44.773Z,1.10
2024-02-05T04:42:47.998Z,1.50
2024-02-05T04:47:51.202Z,1.10
2024-02-05T04:52:54.298Z,1.40
2024-02-05T04:57:57.379Z,1.10
2024-02-05T05:03:00.510Z,1.50
2024-02-05T05:08:05.079Z,1.20
2024-02-05T05:13:08.197Z,1.60
2024-02-05T05:18:11.456Z,1.10
2024-02-05T05:23:16.432Z,1.60
2024-02-05T05:28:19.514Z,0.80
2024-02-05T05:33:22.975Z,0.80
2024-02-05T05:38:26.170Z,0.60
2024-02-05T05:43:29.335Z,1.30
2024-02-05T05:48:32.588Z,1.40
2024-02-05T05:53:35.809Z,1.30
2024-02-05T05:58:39.031Z,1.10
2024-02-05T06:03:44.776Z,1.00
2024-02-05T06:08:48.094Z,1.40
2024-02-05T06:13:51.312Z,1.30
2024-02-05T06:18:54.685Z,1.10
2024-02-05T06:23:58.410Z,1.80
2024-02-05T06:29:01.559Z,1.60
2024-02-05T06:34:08.584Z,0.80
2024-02-05T06:39:14.737Z,1.30
2024-02-05T06:44:21.073Z,1.40
2024-02-05T06:49:24.712Z,1.40
2024-02-05T06:54:29.293Z,2.20
2024-02-05T06:59:32.400Z,1.70
2024-02-05T07:04:36.829Z,1.20
2024-02-05T07:09:40.092Z,1.20
2024-02-05T07:14:43.406Z,1.60
2024-02-05T07:19:46.828Z,1.40
2024-02-05T07:24:53.112Z,1.30
2024-02-05T07:29:56.622Z,1.80
2024-02-05T07:34:59.923Z,1.60
2024-02-05T07:40:07.027Z,2.50
2024-02-05T07:45:10.646Z,2.80
2024-02-05T07:50:13.841Z,2.50
2024-02-05T07:55:17.492Z,1.60
2024-02-05T08:00:20.767Z,1.80
2024-02-05T08:05:24.184Z,1.60
2024-02-05T08:10:27.564Z,1.80
2024-02-05T08:15:30.930Z,2.00
2024-02-05T08:20:34.126Z,1.70
2024-02-05T08:25:39.176Z,1.80
2024-02-05T08:30:42.388Z,2.00
2024-02-05T08:35:45.810Z,1.60
2024-02-05T08:40:48.941Z,1.30
2024-02-05T08:45:52.101Z,1.30
2024-02-05T08:50:55.339Z,2.10
2024-02-05T08:55:58.559Z,1.20
2024-02-05T09:01:01.819Z,1.40
2024-02-05T09:06:05.599Z,1.50
2024-02-05T09:11:11.541Z,1.30
2024-02-05T09:16:16.039Z,2.10
2024-02-05T09:21:19.236Z,1.90
2024-02-05T09:26:22.327Z,2.10
2024-02-05T09:31:26.001Z,1.60
2024-02-05T09:36:29.266Z,2.00
2024-02-05T09:41:38.608Z,2.10
2024-02-05T09:46:49.956Z,1.40
2024-02-05T09:51:53.229Z,1.50
2024-02-05T09:56:56.755Z,2.10
2024-02-05T10:02:00.644Z,2.10
2024-02-05T10:07:06.833Z,2.10
2024-02-05T10:12:12.477Z,1.90
2024-02-05T10:17:17.810Z,1.90
2024-02-05T10:22:21.127Z,1.30
2024-02-05T10:27:24.564Z,1.80
2024-02-05T10:32:28.062Z,1.60
2024-02-05T10:37:32.149Z,2.40
2024-02-05T10:42:35.481Z,1.50
2024-02-05T10:47:39.622Z,1.70
2024-02-05T10:52:43.134Z,1.30
2024-02-05T10:57:48.046Z,1.80
2024-02-05T11:02:55.186Z,1.80
2024-02-05T11:08:06.546Z,2.10
2024-02-05T11:13:12.734Z,1.70
2024-02-05T11:18:28.682Z,1.70
2024-02-05T11:23:34.765Z,2.00
2024-02-05T11:28:38.152Z,1.70
2024-02-05T11:33:43.174Z,2.60
2024-02-05T11:38:46.782Z,4.40
2024-02-05T11:43:50.066Z,3.70
2024-02-05T11:48:54.459Z,3.20
2024-02-05T11:53:58.351Z,2.40
2024-02-05T11:59:01.458Z,2.00
2024-02-05T12:04:05.349Z,3.00
2024-02-05T12:09:08.680Z,2.40
2024-02-05T12:14:14.776Z,2.40
2024-02-05T12:19:24.411Z,1.70
2024-02-05T12:24:27.831Z,1.70
2024-02-05T12:29:30.951Z,1.80
2024-02-05T12:34:35.780Z,2.20
2024-02-05T12:39:43.194Z,2.10
2024-02-05T12:44:57.258Z,1.90
2024-02-05T12:50:09.256Z,1.90
2024-02-05T12:55:12.719Z,2.00
2024-02-05T13:00:17.039Z,1.40
2024-02-05T13:05:20.509Z,2.20
2024-02-05T13:10:26.044Z,1.50
2024-02-05T13:15:29.446Z,1.40
2024-02-05T13:20:35.542Z,1.70
2024-02-05T13:25:45.396Z,2.20
2024-02-05T13:30:51.054Z,2.20
2024-02-05T13:35:54.318Z,2.30
2024-02-05T13:40:57.492Z,2.60
2024-02-05T13:46:05.108Z,2.80
2024-02-05T13:51:09.572Z,1.90
2024-02-05T13:56:12.853Z,1.70
2024-02-05T14:01:16.304Z,2.10
2024-02-05T14:06:19.614Z,1.40
2024-02-05T14:11:22.896Z,1.60
2024-02-05T14:16:25.989Z,1.40
2024-02-05T14:21:29.108Z,1.70
2024-02-05T14:26:32.338Z,3.00
2024-02-05T14:31:35.476Z,3.20
2024-02-05T14:36:38.743Z,3.50
2024-02-05T14:41:43.912Z,2.70
2024-02-05T14:46:48.173Z,4.90
2024-02-05T14:51:51.319Z,3.80
2024-02-05T14:56:54.785Z,4.20
2024-02-05T15:01:58.661Z,2.70
2024-02-05T15:07:01.985Z,1.70
2024-02-05T15:12:06.306Z,1.60
2024-02-05T15:17:09.746Z,1.70
2024-02-05T15:22:14.435Z,1.70
2024-02-05T15:27:18.048Z,1.60
2024-02-05T15:32:21.613Z,2.10
2024-02-05T15:37:25.976Z,2.20
2024-02-05T15:42:32.033Z,2.20
2024-02-05T15:47:35.887Z,1.90
2024-02-05T15:52:39.125Z,2.80
2024-02-05T15:57:45.219Z,4.20
2024-02-05T16:02:50.149Z,7.10
2024-02-05T16:08:03.608Z,6.20
2024-02-05T16:13:12.964Z,3.00
2024-02-05T16:18:30.544Z,2.20
2024-02-05T16:23:33.801Z,1.70
2024-02-05T16:28:37.196Z,2.20
2024-02-05T16:33:40.676Z,2.30
2024-02-05T16:38:44.436Z,1.60
2024-02-05T16:43:48.129Z,1.50
2024-02-05T16:48:51.462Z,1.90
2024-02-05T16:53:54.820Z,2.10
2024-02-05T16:58:58.140Z,1.40
2024-02-05T17:04:01.480Z,1.30
2024-02-05T17:09:04.831Z,1.10
2024-02-05T17:14:09.304Z,1.20
2024-02-05T17:19:12.486Z,0.80
2024-02-05T17:24:16.978Z,1.10
2024-02-05T17:29:20.168Z,1.30
2024-02-05T17:34:24.529Z,2.00
2024-02-05T17:39:27.958Z,2.10
2024-02-05T17:44:31.040Z,1.40
2024-02-05T17:49:34.670Z,1.50
2024-02-05T17:54:44.937Z,1.40
2024-02-05T17:59:48.046Z,1.20
2024-02-05T18:04:51.791Z,1.40
2024-02-05T18:09:55.308Z,1.40
2024-02-05T18:14:58.391Z,1.50
2024-02-05T18:20:01.725Z,1.30
2024-02-05T18:25:05.639Z,1.70
2024-02-05T18:30:09.645Z,2.10
2024-02-05T18:35:13.240Z,1.90
2024-02-05T18:40:16.867Z,1.30
2024-02-05T18:45:20.322Z,1.40
2024-02-05T18:50:23.824Z,2.00
2024-02-05T18:55:27.380Z,2.30
2024-02-05T19:00:30.629Z,2.20
2024-02-05T19:05:34.311Z,1.90
2024-02-05T19:10:37.772Z,2.10
2024-02-05T19:15:40.925Z,3.10
2024-02-05T19:20:44.155Z,2.50
2024-02-05T19:25:47.528Z,1.90
2024-02-05T19:30:51.144Z,1.90
2024-02-05T19:35:54.281Z,2.30
2024-02-05T19:40:57.603Z,1.90
2024-02-05T19:46:03.191Z,1.40
2024-02-05T19:51:06.562Z,1.50
2024-02-05T19:56:09.873Z,1.70
2024-02-05T20:01:13.388Z,1.80
2024-02-05T20:06:16.851Z,1.30
2024-02-05T20:11:20.446Z,1.30
2024-02-05T20:16:31.022Z,1.60
2024-02-05T20:21:34.219Z,1.50
2024-02-05T20:26:37.837Z,1.50
2024-02-05T20:31:41.249Z,1.70
2024-02-05T20:36:44.695Z,1.50
2024-02-05T20:41:47.910Z,1.60
2024-02-05T20:46:52.220Z,1.40
2024-02-05T20:51:55.802Z,1.30
2024-02-05T20:56:59.095Z,1.90
2024-02-05T21:02:02.799Z,1.70
2024-02-05T21:07:06.160Z,1.80
2024-02-05T21:12:10.016Z,1.60
2024-02-05T21:17:13.221Z,1.50
2024-02-05T21:22:16.597Z,1.60
2024-02-05T21:27:19.772Z,1.80
2024-02-05T21:32:23.948Z,1.70
2024-02-05T21:37:27.098Z,1.90
2024-02-05T21:42:30.245Z,1.50
2024-02-05T21:47:33.397Z,1.70
2024-02-05T21:52:36.653Z,1.60
2024-02-05T21:57:39.987Z,1.50
2024-02-05T22:02:43.191Z,1.70
2024-02-05T22:07:46.520Z,1.80
2024-02-05T22:12:49.755Z,2.00
2024-02-05T22:17:53.001Z,3.50
2024-02-05T22:22:56.152Z,3.90
2024-02-05T22:27:59.494Z,4.70
2024-02-05T22:33:02.834Z,4.30
2024-02-05T22:38:06.325Z,4.70
2024-02-05T22:43:10.889Z,2.80
2024-02-05T22:48:15.994Z,2.40
2024-02-05T22:53:19.198Z,3.40
2024-02-05T22:58:22.350Z,3.10
2024-02-05T23:03:25.717Z,3.10
2024-02-05T23:08:28.927Z,3.00
2024-02-05T23:13:32.342Z,2.40
2024-02-05T23:18:35.616Z,2.20
2024-02-05T23:23:38.993Z,2.00
2024-02-05T23:28:42.129Z,1.90
2024-02-05T23:33:46.513Z,2.20
2024-02-05T23:38:49.625Z,1.90
2024-02-05T23:43:53.368Z,2.20
2024-02-05T23:48:59.726Z,2.90
2024-02-05T23:54:04.385Z,2.30
2024-02-05T23:59:08.487Z,3.40
